Vores vejrinfo findes også på:

UK Metoffice

European Weather Network

Weather Underground



Stationer ""tæt på"" METAR Rapporter

   
EKEB - Esbjerg, Denmark
Afstand fra denne vejrstation: NNV 29 km
Opdateret: 18-09-2019 23:20
Klart  
Klart  
   Vind fra: NV 3.6 m/s
Vind fra: NV 3.6 m/s
Temperatur: 10°C
Chill faktor: 8°C
Dugpunkt: 7°C
Luftfugtighed: 82%
Barometer: 1024 hPa
Skyer: Klart
Sigtbarhed: More than 10 km
Sky detaljer: Klart
EKEB 182120Z AUTO 31007KT 9999 NCD 10/07 Q1024
EKSP - Skrydstrup(Dan-A, Denmark
Afstand fra denne vejrstation: Ø 35 km
Opdateret: 18-09-2019 23:20
Få skyer  
Få skyer  
   Vind fra: Vest 3.1 m/s
Vind fra: Vest 3.1 m/s
Temperatur: 7°C
Chill faktor: 5°C
Dugpunkt: 6°C
Luftfugtighed: 93%
Barometer: 1024 hPa
Skyer: Få skyer
Sigtbarhed: More than 10 km
Sky detaljer: Få skyer 3000 ft
EKSP 182120Z 28006KT 9999 FEW030 07/06 Q1024
EKBI - Billund Airport, Denmark
Afstand fra denne vejrstation: NNØ 56 km
Opdateret: 18-09-2019 23:20
Klart  
Klart  
   Vind fra: Vest 3.6 m/s
Vind fra: Vest 3.6 m/s
Temperatur: 8°C
Chill faktor: 6°C
Dugpunkt: 6°C
Luftfugtighed: 87%
Barometer: 1024 hPa
Skyer: Klart
Sigtbarhed: More than 10 km
Sky detaljer: Klart
EKBI 182120Z AUTO 28007KT 9999 NCD 08/06 Q1024
EKSB - Sonderborg Airpo, Denmark
Afstand fra denne vejrstation: ØSØ 76 km
Opdateret: 18-09-2019 23:20
Klart  
Klart  
   Vind fra: VNV 3.6 m/s
Vind fra: VNV 3.6 m/s
Temperatur: 11°C
Dugpunkt: 7°C
Luftfugtighed: 77%
Barometer: 1023 hPa
Skyer: Klart
Sigtbarhed: 10 km
Sky detaljer: Klart
EKSB 182120Z AUTO 29007KT 260V320 9999NDV NCD 11/07 Q1023
EKVD - Vamdrup (aut/man), Denmark
Afstand fra denne vejrstation: ØNØ 41 km
Opdateret: 18-09-2019 23:20
  
  
   Vind fra: VNV 4.1 m/s
Vind fra: VNV 4.1 m/s
Temperatur: 9°C
Chill faktor: 7°C
Dugpunkt: 7°C
Luftfugtighed: 87%
Barometer: 1024 hPa
EKVD 182120Z AUTO 30008KT //// ///////// 09/07 Q1024
EDXW - Westerland/Sylt, Germany
Afstand fra denne vejrstation: SSV 47 km
Opdateret: 18-09-2019 20:20
Data er IKKE opdaterede!
Mest overskyet  
Mest overskyet  
   Vind fra: NV 10.3 m/s
Vind fra: NV 10.3 m/s
Temperatur: 12°C
Dugpunkt: 7°C
Luftfugtighed: 72%
Barometer: 1024 hPa
Skyer: Mest overskyet
Sigtbarhed: More than 10 km
Sky detaljer: Få skyer 3500 ft,
Mest overskyet 5300 ft
EDXW 181820Z 31020KT 9999 FEW035 BKN053 12/07 Q1024

Original script by  Saratoga-weather.org Adapted for the template by  Weerstation Leuven

Der anvendes følgende:

Vejrstation
Davis VP2

Vejrprogram
Meteohub

Server
RaspberryPI 3 model B

Davis VP2

Meteohub

RaspberryPI 3 model B